^^
Saratoga-Weather Station Historical Data
Daily Summary for September 17, 2021 Units:  English    Metric   Both
Daily Weekly Monthly Yearly Custom
  High: Low: Average:
Temperature: 73.2 °F 49.5 °F 59.7 °F
Dew Point: 58.1 °F 48.4 °F 53.4 °F
Humidity: 97% 52% 81%
Wind Speed: 6mph 0mph 0.6mph
Wind Gust: 8mph - -
Wind- - ESE
Pressure: 30.1 in 29.9 in -
Precipitation: 0 in    
Historical Graphs
 
 
Tabular Data for September 17, 2021
Time Temperature Dew Point Pressure Wind Wind Speed Wind Gust Humidity Rainfall Rate (Hourly) solar
00:00 55.2 °F 52.9 °F 30.1 in Calm     92% 0 in 0 W/m2
00:05 55 °F 52.7 °F 30.1 in Calm     92% 0 in 0 W/m2
00:10 55 °F 52.7 °F 30.1 in Calm     92% 0 in 0 W/m2
00:15 54.9 °F 52.5 °F 30.1 in Calm     92% 0 in 0 W/m2
00:20 54.9 °F 52.9 °F 30.1 in Calm     93% 0 in 0 W/m2
00:25 54.7 °F 52.7 °F 30.1 in Calm     93% 0 in 0 W/m2
00:30 54.7 °F 52.7 °F 30.1 in Calm     93% 0 in 0 W/m2
00:35 54.5 °F 52.5 °F 30 in Calm     93% 0 in 0 W/m2
00:40 54.3 °F 52.3 °F 30 in Calm     93% 0 in 0 W/m2
00:45 54.5 °F 52.5 °F 30 in Calm     93% 0 in 0 W/m2
00:50 54.5 °F 52.9 °F 30 in Calm     94% 0 in 0 W/m2
00:55 54.3 °F 52.7 °F 30.1 in Calm     94% 0 in 0 W/m2
01:00 54.3 °F 52.7 °F 30.1 in Calm     94% 0 in 0 W/m2
01:05 54.3 °F 52.7 °F 30.1 in Calm     94% 0 in 0 W/m2
01:10 54.1 °F 52.5 °F 30.1 in Calm     94% 0 in 0 W/m2
01:15 54 °F 52 °F 30.1 in Calm     93% 0 in 0 W/m2
01:20 54 °F 52.3 °F 30.1 in Calm     94% 0 in 0 W/m2
01:25 53.8 °F 52.2 °F 30.1 in Calm     94% 0 in 0 W/m2
01:30 53.8 °F 52.2 °F 30.1 in Calm     94% 0 in 0 W/m2
01:35 53.6 °F 52 °F 30.1 in Calm     94% 0 in 0 W/m2
01:40 53.4 °F 51.8 °F 30.1 in Calm     94% 0 in 0 W/m2
01:45 53.4 °F 51.8 °F 30.1 in Calm     94% 0 in 0 W/m2
01:50 53.4 °F 51.8 °F 30.1 in Calm     94% 0 in 0 W/m2
01:55 53.2 °F 51.6 °F 30.1 in Calm     94% 0 in 0 W/m2
02:00 53.2 °F 51.6 °F 30.1 in Calm     94% 0 in 0 W/m2
02:05 53.1 °F 51.4 °F 30.1 in Calm     94% 0 in 0 W/m2
02:10 52.9 °F 51.3 °F 30 in Calm     94% 0 in 0 W/m2
02:15 52.9 °F 51.3 °F 30 in Calm     94% 0 in 0 W/m2
02:20 52.5 °F 50.9 °F 30 in Calm     94% 0 in 0 W/m2
02:25 52.5 °F 50.9 °F 30 in Calm     94% 0 in 0 W/m2
02:30 52.3 °F 50.9 °F 30 in Calm     95% 0 in 0 W/m2
02:35 52.3 °F 50.9 °F 30 in Calm     95% 0 in 0 W/m2
02:40 52.3 °F 50.9 °F 30 in Calm     95% 0 in 0 W/m2
02:45 52.2 °F 50.7 °F 30 in Calm     95% 0 in 0 W/m2
02:50 52.2 °F 50.7 °F 30 in Calm     95% 0 in 0 W/m2
02:55 52.2 °F 50.7 °F 30 in Calm     95% 0 in 0 W/m2
03:00 52 °F 50.5 °F 30 in Calm     95% 0 in 0 W/m2
03:05 51.8 °F 50.4 °F 30 in Calm     95% 0 in 0 W/m2
03:10 51.6 °F 50.2 °F 30 in Calm     95% 0 in 0 W/m2
03:15 51.6 °F 50.2 °F 30 in Calm     95% 0 in 0 W/m2
03:20 51.6 °F 50.2 °F 30 in Calm     95% 0 in 0 W/m2
03:25 51.4 °F 50 °F 30 in Calm     95% 0 in 0 W/m2
03:30 51.4 °F 50 °F 30 in Calm     95% 0 in 0 W/m2
03:35 51.3 °F 49.8 °F 30 in Calm     95% 0 in 0 W/m2
03:40 51.3 °F 49.8 °F 30 in Calm     95% 0 in 0 W/m2
03:46 51.1 °F 49.6 °F 30 in Calm     95% 0 in 0 W/m2
03:51 51.1 °F 49.6 °F 30 in Calm     95% 0 in 0 W/m2
03:56 51.1 °F 49.6 °F 30 in Calm     95% 0 in 0 W/m2
04:01 51.1 °F 49.6 °F 30 in Calm     95% 0 in 0 W/m2
04:06 51.1 °F 49.6 °F 30 in Calm     95% 0 in 0 W/m2
04:11 50.7 °F 49.3 °F 30 in Calm     95% 0 in 0 W/m2
04:16 50.7 °F 49.3 °F 30 in Calm     95% 0 in 0 W/m2
04:21 50.7 °F 49.3 °F 30 in Calm     95% 0 in 0 W/m2
04:26 50.7 °F 49.3 °F 30 in Calm     95% 0 in 0 W/m2
04:31 50.5 °F 49.1 °F 30 in Calm     95% 0 in 0 W/m2
04:36 50.5 °F 49.1 °F 30 in Calm     95% 0 in 0 W/m2
04:41 50.4 °F 49.3 °F 30 in Calm     96% 0 in 0 W/m2
04:46 50.4 °F 49.3 °F 30 in Calm     96% 0 in 0 W/m2
04:51 50.4 °F 49.3 °F 30 in Calm     96% 0 in 0 W/m2
04:56 50.4 °F 49.3 °F 30 in Calm     96% 0 in 0 W/m2
05:01 50.2 °F 49.1 °F 30 in Calm     96% 0 in 0 W/m2
05:06 50.4 °F 49.3 °F 30 in Calm     96% 0 in 0 W/m2
05:11 50.4 °F 49.3 °F 30 in Calm     96% 0 in 0 W/m2
05:16 50.2 °F 49.1 °F 30 in Calm     96% 0 in 0 W/m2
05:21 50.2 °F 49.1 °F 30 in Calm     96% 0 in 0 W/m2
05:26 50.2 °F 49.1 °F 30 in Calm     96% 0 in 0 W/m2
05:31 50.2 °F 49.1 °F 30 in Calm     96% 0 in 0 W/m2
05:36 50.2 °F 49.1 °F 30 in Calm     96% 0 in 0 W/m2
05:41 50.2 °F 49.1 °F 30 in Calm     96% 0 in 0 W/m2
05:46 50.2 °F 49.1 °F 30 in Calm     96% 0 in 0 W/m2
05:51 50.2 °F 49.1 °F 30 in Calm     96% 0 in 0 W/m2
05:56 50.2 °F 49.1 °F 30 in Calm     96% 0 in 0 W/m2
06:01 50.2 °F 49.1 °F 30 in Calm     96% 0 in 0 W/m2
06:06 50.2 °F 49.1 °F 30 in Calm     96% 0 in 0 W/m2
06:11 50.2 °F 49.1 °F 30 in Calm     96% 0 in 0 W/m2
06:16 50 °F 48.9 °F 30 in Calm     96% 0 in 0 W/m2
06:21 49.8 °F 48.7 °F 30 in Calm     96% 0 in 0 W/m2
06:26 49.8 °F 48.7 °F 30 in Calm     96% 0 in 0 W/m2
06:31 49.8 °F 48.7 °F 30 in Calm     96% 0 in 0 W/m2
06:36 49.8 °F 48.7 °F 30 in Calm     96% 0 in 0 W/m2
06:41 49.6 °F 48.6 °F 30 in Calm     96% 0 in 0 W/m2
06:46 49.6 °F 48.6 °F 30 in Calm     96% 0 in 0 W/m2
06:51 49.6 °F 48.6 °F 30 in Calm     96% 0 in 0 W/m2
06:56 49.6 °F 48.6 °F 30 in Calm     96% 0 in 0 W/m2
07:01 49.6 °F 48.6 °F 30 in Calm     96% 0 in 0 W/m2
07:06 49.5 °F 48.4 °F 30 in Calm     96% 0 in 0 W/m2
07:11 49.5 °F 48.4 °F 30 in Calm     96% 0 in 0 W/m2
07:16 49.5 °F 48.4 °F 30 in Calm     96% 0 in 0 W/m2
07:21 49.5 °F 48.4 °F 30 in Calm     96% 0 in 5 W/m2
07:27 49.5 °F 48.4 °F 30 in Calm     96% 0 in 9 W/m2
07:32 49.5 °F 48.4 °F 30 in Calm     96% 0 in 11 W/m2
07:37 49.5 °F 48.4 °F 30 in Calm     96% 0 in 14 W/m2
07:42 49.6 °F 48.6 °F 30 in Calm     96% 0 in 19 W/m2
07:47 49.6 °F 48.6 °F 30 in Calm     96% 0 in 21 W/m2
07:52 49.8 °F 48.7 °F 30 in Calm     96% 0 in 26 W/m2
07:57 50 °F 48.9 °F 30 in Calm     96% 0 in 33 W/m2
08:02 50.2 °F 49.3 °F 30 in Calm     97% 0 in 40 W/m2
08:07 50.2 °F 49.3 °F 30 in Calm     97% 0 in 47 W/m2
08:12 50.5 °F 49.6 °F 30 in Calm     97% 0 in 53 W/m2
08:17 50.5 °F 49.6 °F 30 in Calm     97% 0 in 56 W/m2
08:22 50.7 °F 49.8 °F 30 in Calm     97% 0 in 67 W/m2
08:27 51.1 °F 50.2 °F 30 in Calm     97% 0 in 84 W/m2
08:32 51.4 °F 50.5 °F 30 in Calm     97% 0 in 104 W/m2
08:37 51.6 °F 50.7 °F 30 in Calm     97% 0 in 137 W/m2
08:42 52 °F 51.1 °F 30 in Calm     97% 0 in 120 W/m2
08:47 52.3 °F 51.4 °F 30 in Calm     97% 0 in 83 W/m2
08:52 52.7 °F 51.8 °F 30 in Calm   1 mph 97% 0 in 155 W/m2
08:57 53.2 °F 52.3 °F 30 in Calm   1 mph 97% 0 in 183 W/m2
09:02 53.4 °F 52.5 °F 30 in North 0.9 mph 2 mph 97% 0 in 97 W/m2
09:07 53.4 °F 52.5 °F 30 in NE 0.9 mph 3 mph 97% 0 in 134 W/m2
09:12 53.8 °F 52.9 °F 30 in ESE 0.9 mph 3 mph 97% 0 in 109 W/m2
09:17 54 °F 53.1 °F 30 in Calm   2 mph 97% 0 in 109 W/m2
09:22 54.1 °F 53.2 °F 30 in ENE 2 mph 2 mph 97% 0 in 223 W/m2
09:27 54.7 °F 53.8 °F 30 in ENE 0.9 mph 3 mph 97% 0 in 287 W/m2
09:32 55 °F 54.1 °F 30 in East 2 mph 3 mph 97% 0 in 301 W/m2
09:37 55.8 °F 54.7 °F 30 in NE 0.9 mph 3 mph 96% 0 in 330 W/m2
09:42 56.7 °F 55.6 °F 30 in Calm   3 mph 96% 0 in 323 W/m2
09:47 57.4 °F 55.6 °F 30 in ENE 0.9 mph 4 mph 94% 0 in 327 W/m2
09:52 57.7 °F 55.8 °F 30 in East 2 mph 4 mph 93% 0 in 360 W/m2
09:57 58.3 °F 55.9 °F 30 in Calm   1 mph 92% 0 in 369 W/m2
10:02 58.8 °F 56.1 °F 30 in East 0.9 mph 2 mph 91% 0 in 404 W/m2
10:07 59.4 °F 55.8 °F 30 in ENE 2 mph 3 mph 88% 0 in 373 W/m2
10:12 59.7 °F 55.6 °F 30 in Calm   2 mph 86% 0 in 336 W/m2
10:17 60.1 °F 55.6 °F 30 in East 0.9 mph 4 mph 85% 0 in 441 W/m2
10:22 60.3 °F 55.8 °F 30 in ENE 0.9 mph 1 mph 85% 0 in 429 W/m2
10:27 60.3 °F 55.8 °F 30 in ENE 0.9 mph 3 mph 85% 0 in 420 W/m2
10:32 60.6 °F 55.8 °F 30 in East 0.9 mph 2 mph 84% 0 in 301 W/m2
10:37 60.6 °F 55.4 °F 30 in ENE 0.9 mph 4 mph 83% 0 in 216 W/m2
10:42 60.6 °F 55.8 °F 30 in ENE 0.9 mph 2 mph 84% 0 in 489 W/m2
10:47 61 °F 55.8 °F 30 in ENE 4 mph 4 mph 83% 0 in 482 W/m2
10:52 61.2 °F 55.9 °F 30 in East 0.9 mph 4 mph 83% 0 in 366 W/m2
10:57 61.3 °F 56.1 °F 30 in East 0.9 mph 2 mph 83% 0 in 492 W/m2
11:02 61.9 °F 55.9 °F 30 in ENE 2.9 mph 4 mph 81% 0 in 341 W/m2
11:07 62.1 °F 56.1 °F 30 in Calm   3 mph 81% 0 in 306 W/m2
11:12 62.1 °F 55.4 °F 30 in Calm   2 mph 79% 0 in 350 W/m2
11:17 62.2 °F 55.9 °F 30 in Calm     80% 0 in 376 W/m2
11:22 62.6 °F 55.9 °F 30 in ESE 2 mph 2 mph 79% 0 in 373 W/m2
11:27 63 °F 56.3 °F 30 in East 0.9 mph 1 mph 79% 0 in 462 W/m2
11:32 63.9 °F 56.5 °F 30 in East 2 mph 5 mph 77% 0 in 499 W/m2
11:37 64.2 °F 56.8 °F 30 in Calm   2 mph 77% 0 in 643 W/m2
11:42 64.8 °F 56.7 °F 30 in SE 0.9 mph 3 mph 75% 0 in 631 W/m2
11:47 65.5 °F 57 °F 30 in NE 2 mph 3 mph 74% 0 in 606 W/m2
11:52 65.8 °F 56.5 °F 30 in ENE 0.9 mph 3 mph 72% 0 in 605 W/m2
11:57 66 °F 56.3 °F 30 in ESE 2 mph 2 mph 71% 0 in 596 W/m2
12:03 66.4 °F 56.7 °F 30 in Calm   3 mph 71% 0 in 608 W/m2
12:08 66.6 °F 56.1 °F 30 in ESE 2.9 mph 4 mph 69% 0 in 534 W/m2
12:13 66.7 °F 56.7 °F 30 in East 2 mph 3 mph 70% 0 in 626 W/m2
12:18 67.3 °F 57.2 °F 30 in ESE 4 mph 4 mph 70% 0 in 508 W/m2
12:23 67.8 °F 56.5 °F 30 in Calm   3 mph 67% 0 in 615 W/m2
12:28 68.2 °F 56.3 °F 30 in East 0.9 mph 5 mph 66% 0 in 345 W/m2
12:33 68.4 °F 56.5 °F 30 in East 4 mph 4 mph 66% 0 in 649 W/m2
12:38 68.4 °F 56.5 °F 30 in West 0.9 mph 3 mph 66% 0 in 642 W/m2
12:43 68.2 °F 57.2 °F 30 in ESE 2 mph 6 mph 68% 0 in 640 W/m2
12:48 68.4 °F 56.1 °F 30 in ESE 0.9 mph 2 mph 65% 0 in 633 W/m2
12:53 68 °F 56.3 °F 30 in NNW 2 mph 6 mph 66% 0 in 656 W/m2
12:58 67.8 °F 56.5 °F 30 in Calm   3 mph 67% 0 in 668 W/m2
13:03 68.4 °F 56.5 °F 30 in SSE 2 mph 2 mph 66% 0 in 146 W/m2
13:08 68.4 °F 56.5 °F 30 in Calm   2 mph 66% 0 in 666 W/m2
13:13 68.5 °F 56.7 °F 30 in West 2 mph 2 mph 66% 0 in 680 W/m2
13:18 68.7 °F 57.4 °F 30 in ENE 2 mph 3 mph 67% 0 in 700 W/m2
13:23 69.1 °F 56.5 °F 30 in ESE 6 mph 8 mph 64% 0 in 708 W/m2
13:28 69.3 °F 56.1 °F 30 in Calm   5 mph 63% 0 in 724 W/m2
13:33 69.4 °F 57.2 °F 30 in Calm   8 mph 65% 0 in 722 W/m2
13:38 69.4 °F 55.9 °F 30 in SE 0.9 mph 2 mph 62% 0 in 237 W/m2
13:43 69.3 °F 56.1 °F 30 in ENE 4 mph 5 mph 63% 0 in 209 W/m2
13:48 69.1 °F 55.9 °F 30 in Calm   3 mph 63% 0 in 299 W/m2
13:53 69.1 °F 55.9 °F 30 in North 2.9 mph 3 mph 63% 0 in 550 W/m2
13:58 68.9 °F 55.4 °F 30 in ENE 0.9 mph 4 mph 62% 0 in 163 W/m2
14:03 68.7 °F 55.6 °F 30 in ENE 0.9 mph 4 mph 63% 0 in 163 W/m2
14:08 68.5 °F 55.4 °F 30 in NNW 0.9 mph 2 mph 63% 0 in 135 W/m2
14:13 68.4 °F 55.2 °F 30 in East 0.9 mph 2 mph 63% 0 in 160 W/m2
14:18 68.4 °F 55.2 °F 30 in ENE 4 mph 5 mph 63% 0 in 221 W/m2
14:23 68.5 °F 55.4 °F 30 in Calm   3 mph 63% 0 in 698 W/m2
14:28 69.1 °F 55.6 °F 30 in NNW 2 mph 5 mph 62% 0 in 693 W/m2
14:33 69.4 °F 55.4 °F 30 in ENE 0.9 mph 7 mph 61% 0 in 239 W/m2
14:38 69.6 °F 55.9 °F 30 in SSE 0.9 mph 4 mph 62% 0 in 318 W/m2
14:43 69.8 °F 56.1 °F 30 in ESE 2.9 mph 7 mph 62% 0 in 758 W/m2
14:48 70.2 °F 55.2 °F 30 in ESE 2.9 mph 5 mph 59% 0 in 758 W/m2
14:53 70.5 °F 55.9 °F 30 in ESE 0.9 mph 2 mph 60% 0 in 754 W/m2
14:58 71.1 °F 55.6 °F 30 in Calm   5 mph 58% 0 in 712 W/m2
15:03 71.4 °F 55.4 °F 30 in ESE 2 mph 3 mph 57% 0 in 598 W/m2
15:08 71.4 °F 54.9 °F 30 in South 0.9 mph 4 mph 56% 0 in 288 W/m2
15:13 71.2 °F 55.2 °F 30 in ESE 2 mph 3 mph 57% 0 in 671 W/m2
15:18 71.4 °F 54.9 °F 30 in East 0.9 mph 8 mph 56% 0 in 645 W/m2
15:23 71.8 °F 54.7 °F 30 in Calm   2 mph 55% 0 in 643 W/m2
15:28 72 °F 55.9 °F 30 in Calm   4 mph 57% 0 in 629 W/m2
15:33 72.3 °F 55.2 °F 30 in Calm   1 mph 55% 0 in 613 W/m2
15:38 72.9 °F 56.3 °F 30 in ENE 0.9 mph 3 mph 56% 0 in 592 W/m2
15:43 73 °F 55.4 °F 30 in ENE 2.9 mph 3 mph 54% 0 in 601 W/m2
15:48 73.2 °F 55 °F 30 in NNW 2 mph 4 mph 53% 0 in 571 W/m2
15:53 73.2 °F 54.5 °F 30 in Calm   3 mph 52% 0 in 555 W/m2
15:58 73 °F 54.9 °F 30 in East 2 mph 4 mph 53% 0 in 559 W/m2
16:03 72.7 °F 55 °F 30 in Calm   2 mph 54% 0 in 545 W/m2
16:08 72.3 °F 54.7 °F 30 in East 2.9 mph 4 mph 54% 0 in 146 W/m2
16:13 72.1 °F 55.6 °F 30 in ENE 0.9 mph 2 mph 56% 0 in 555 W/m2
16:18 72 °F 55.4 °F 30 in SSE 0.9 mph 4 mph 56% 0 in 443 W/m2
16:23 72 °F 55.4 °F 30 in ESE 0.9 mph 3 mph 56% 0 in 547 W/m2
16:28 72 °F 55.9 °F 30 in East 2 mph 4 mph 57% 0 in 566 W/m2
16:33 72 °F 55.9 °F 30 in ENE 0.9 mph 3 mph 57% 0 in 548 W/m2
16:38 72.1 °F 56.1 °F 30 in ENE 2 mph 6 mph 57% 0 in 540 W/m2
16:43 72.3 °F 56.3 °F 30 in East 2.9 mph 4 mph 57% 0 in 522 W/m2
16:48 72.1 °F 55 °F 30 in East 2.9 mph 5 mph 55% 0 in 283 W/m2
16:53 72 °F 54.3 °F 30 in ENE 2 mph 5 mph 54% 0 in 264 W/m2
16:58 71.4 °F 55.4 °F 30 in Calm   3 mph 57% 0 in 118 W/m2
17:03 71.1 °F 54.5 °F 30 in ESE 0.9 mph 1 mph 56% 0 in 76 W/m2
17:08 70.9 °F 55.8 °F 30 in ENE 2.9 mph 3 mph 59% 0 in 63 W/m2
17:13 70.3 °F 55.8 °F 30 in ENE 0.9 mph 4 mph 60% 0 in 62 W/m2
17:18 70 °F 55.4 °F 30 in ENE 2 mph 2 mph 60% 0 in 69 W/m2
17:23 69.6 °F 55 °F 30 in ENE 0.9 mph 3 mph 60% 0 in 74 W/m2
17:28 69.3 °F 55.2 °F 30 in ENE 0.9 mph 5 mph 61% 0 in 69 W/m2
17:33 69.1 °F 55.6 °F 30 in NE 0.9 mph 5 mph 62% 0 in 65 W/m2
17:38 68.7 °F 55.6 °F 30 in Calm   1 mph 63% 0 in 51 W/m2
17:43 68.4 °F 55.2 °F 29.9 in SE 0.9 mph 3 mph 63% 0 in 47 W/m2
17:48 68 °F 55.4 °F 30 in Calm   1 mph 64% 0 in 47 W/m2
17:53 67.6 °F 56.3 °F 30 in Calm     67% 0 in 56 W/m2
17:58 67.3 °F 55.6 °F 30 in East 0.9 mph 3 mph 66% 0 in 56 W/m2
18:03 67.3 °F 55.6 °F 30 in Calm   1 mph 66% 0 in 216 W/m2
18:08 67.5 °F 56.5 °F 30 in SE 0.9 mph 2 mph 68% 0 in 204 W/m2
18:13 67.6 °F 56.7 °F 30 in Calm     68% 0 in 190 W/m2
18:18 68 °F 57 °F 30 in SSE 0.9 mph 1 mph 68% 0 in 178 W/m2
18:23 68.4 °F 57.7 °F 29.9 in Calm   1 mph 69% 0 in 167 W/m2
18:28 68.7 °F 58.1 °F 29.9 in Calm   1 mph 69% 0 in 155 W/m2
18:33 68.7 °F 57.7 °F 29.9 in Calm   1 mph 68% 0 in 141 W/m2
18:38 68.9 °F 57.9 °F 29.9 in Calm   2 mph 68% 0 in 127 W/m2
18:44 68.7 °F 57.7 °F 29.9 in South 0.9 mph 1 mph 68% 0 in 116 W/m2
18:49 68.5 °F 57.6 °F 29.9 in South 0.9 mph 2 mph 68% 0 in 83 W/m2
18:54 68.2 °F 57.2 °F 29.9 in Calm   1 mph 68% 0 in 30 W/m2
18:59 67.5 °F 57 °F 29.9 in Calm     69% 0 in 26 W/m2
19:04 66.7 °F 56.7 °F 29.9 in Calm     70% 0 in 25 W/m2
19:09 66.2 °F 56.1 °F 29.9 in Calm     70% 0 in 21 W/m2
19:14 65.7 °F 56.3 °F 29.9 in South 0.9 mph 2 mph 72% 0 in 19 W/m2
19:19 64.9 °F 56.1 °F 29.9 in Calm   1 mph 73% 0 in 18 W/m2
19:24 64.6 °F 55.8 °F 29.9 in Calm     73% 0 in 14 W/m2
19:29 64 °F 55.6 °F 29.9 in Calm   1 mph 74% 0 in 12 W/m2
19:34 63.7 °F 55.6 °F 29.9 in South 0.9 mph 2 mph 75% 0 in 9 W/m2
19:39 63.1 °F 55 °F 29.9 in South 0.9 mph 2 mph 75% 0 in 7 W/m2
19:44 63 °F 55.2 °F 29.9 in Calm     76% 0 in 5 W/m2
19:49 62.4 °F 55 °F 29.9 in South 0.9 mph 2 mph 77% 0 in 0 W/m2
19:54 62.1 °F 55 °F 29.9 in Calm   1 mph 78% 0 in 0 W/m2
19:59 61.7 °F 55 °F 29.9 in Calm   2 mph 79% 0 in 0 W/m2
20:04 61.3 °F 55 °F 29.9 in South 0.9 mph 2 mph 80% 0 in 0 W/m2
20:09 61.2 °F 54.9 °F 30 in South 0.9 mph 1 mph 80% 0 in 0 W/m2
20:14 60.8 °F 54.9 °F 30 in South 0.9 mph 2 mph 81% 0 in 0 W/m2
20:19 60.4 °F 54.9 °F 29.9 in Calm     82% 0 in 0 W/m2
20:24 60.3 °F 54.7 °F 30 in Calm   2 mph 82% 0 in 0 W/m2
20:29 60.1 °F 54.5 °F 30 in Calm     82% 0 in 0 W/m2
20:34 59.7 °F 54.5 °F 30 in Calm     83% 0 in 0 W/m2
20:39 59.5 °F 54.3 °F 30 in Calm     83% 0 in 0 W/m2
20:44 59.2 °F 54.3 °F 30 in Calm     84% 0 in 0 W/m2
20:49 59 °F 54.1 °F 30 in Calm     84% 0 in 0 W/m2
20:54 58.6 °F 54.1 °F 30 in Calm     85% 0 in 0 W/m2
20:59 58.5 °F 54 °F 30 in Calm     85% 0 in 0 W/m2
21:04 58.5 °F 54.3 °F 30 in Calm     86% 0 in 0 W/m2
21:09 58.1 °F 54.3 °F 30 in Calm     87% 0 in 0 W/m2
21:14 57.9 °F 54.1 °F 30 in Calm     87% 0 in 0 W/m2
Juneau County Weather
Compliments of Weather Underground - 2 mb